Time;durP1;ratioP1;P1;durP2;ratioP2;P2;SDS_P1;SDS_P2;PMS_P1;PMS_P2;Temp;Humidity;BMP_temperature;BMP_pressure;BME280_temperature;BME280_humidity;BME280_pressure;Samples;Min_cycle;Max_cycle;Signal;HPM_P1;HPM_P2
2021/10/25 00:01:33;;;;;;;28.00;17.75;;;5.70;99.90;;;;;;4129262;28;20064;-78
2021/10/25 00:03:33;;;;;;;28.23;18.25;;;5.80;99.90;;;;;;4130704;28;20038;-78
2021/10/25 00:05:34;;;;;;;29.40;19.08;;;5.80;99.90;;;;;;4129601;28;20546;-78
2021/10/25 00:07:35;;;;;;;34.85;18.48;;;5.80;99.90;;;;;;4129833;28;20030;-78
2021/10/25 00:09:35;;;;;;;28.88;18.83;;;5.80;99.90;;;;;;4131318;28;20034;-78
2021/10/25 00:11:36;;;;;;;27.42;19.60;;;5.80;99.90;;;;;;4129144;28;20043;-78
2021/10/25 00:13:36;;;;;;;33.55;20.35;;;5.80;99.90;;;;;;4114925;28;20042;-79
2021/10/25 00:15:37;;;;;;;32.90;18.92;;;5.90;99.90;;;;;;4127512;28;20030;-78
2021/10/25 00:17:39;;;;;;;30.30;19.73;;;5.80;99.90;;;;;;4129097;28;20092;-79
2021/10/25 00:19:39;;;;;;;32.83;18.40;;;5.80;99.90;;;;;;4125790;28;20026;-79
2021/10/25 00:21:40;;;;;;;30.63;19.63;;;5.70;99.90;;;;;;4115620;28;20637;-79
2021/10/25 00:23:41;;;;;;;27.67;17.90;;;5.70;99.90;;;;;;4128867;28;20035;-79
2021/10/25 00:25:42;;;;;;;24.50;18.55;;;5.70;99.90;;;;;;4127887;28;20031;-79
2021/10/25 00:27:42;;;;;;;34.08;20.63;;;5.60;99.90;;;;;;4139079;28;20042;-79
2021/10/25 00:29:43;;;;;;;29.00;19.92;;;5.50;99.90;;;;;;4117649;28;20058;-79
2021/10/25 00:31:44;;;;;;;29.63;20.20;;;5.40;99.90;;;;;;4124188;28;20030;-78
2021/10/25 00:33:44;;;;;;;38.47;19.98;;;5.30;99.90;;;;;;4128954;28;20046;-79
2021/10/25 00:35:45;;;;;;;29.60;18.08;;;5.20;99.90;;;;;;4120136;28;20031;-78
2021/10/25 00:37:47;;;;;;;33.47;20.25;;;5.10;99.90;;;;;;4118512;28;20031;-78
2021/10/25 00:39:48;;;;;;;34.67;20.83;;;5.00;99.90;;;;;;4124431;28;20089;-79
2021/10/25 00:41:49;;;;;;;29.48;18.95;;;5.00;99.90;;;;;;4126058;28;20030;-78
2021/10/25 00:43:50;;;;;;;30.65;19.67;;;4.90;99.90;;;;;;4127204;28;20062;-79
2021/10/25 00:45:51;;;;;;;34.78;19.73;;;4.80;99.90;;;;;;4129494;28;20489;-78
2021/10/25 00:47:52;;;;;;;30.15;19.75;;;4.90;99.90;;;;;;4129253;28;20046;-79
2021/10/25 00:49:53;;;;;;;35.53;20.92;;;4.80;99.90;;;;;;4129083;28;20045;-79
2021/10/25 00:51:54;;;;;;;35.15;21.95;;;4.80;99.90;;;;;;4128408;28;20145;-79
2021/10/25 00:53:55;;;;;;;42.40;23.27;;;4.70;99.90;;;;;;4127582;28;20045;-79
2021/10/25 00:55:58;;;;;;;35.42;22.30;;;4.80;99.90;;;;;;4129083;28;20494;-79
2021/10/25 00:57:58;;;;;;;36.43;22.97;;;4.70;99.90;;;;;;4124538;28;20056;-79
2021/10/25 00:59:59;;;;;;;38.40;23.20;;;4.70;99.90;;;;;;4130021;28;20670;-79
2021/10/25 01:02:00;;;;;;;41.88;24.30;;;4.70;99.90;;;;;;4130091;28;20037;-79
2021/10/25 01:04:02;;;;;;;42.92;23.65;;;4.70;99.90;;;;;;4130699;28;20035;-79
2021/10/25 01:06:04;;;;;;;39.22;24.83;;;4.70;99.90;;;;;;4128758;28;20128;-79
2021/10/25 01:08:05;;;;;;;37.38;24.15;;;4.70;99.90;;;;;;4113278;28;20043;-79
2021/10/25 01:10:06;;;;;;;39.92;24.98;;;4.70;99.90;;;;;;4129319;28;20030;-78
2021/10/25 01:12:07;;;;;;;37.25;24.40;;;4.70;99.90;;;;;;4112992;28;20702;-80
2021/10/25 01:14:08;;;;;;;42.30;26.48;;;4.60;99.90;;;;;;4129942;28;20494;-79
2021/10/25 01:16:09;;;;;;;41.65;26.48;;;4.60;99.90;;;;;;4127669;28;20042;-79
2021/10/25 01:18:10;;;;;;;45.65;27.45;;;4.70;99.90;;;;;;4129439;28;20405;-79
2021/10/25 01:20:10;;;;;;;42.85;26.92;;;4.80;99.90;;;;;;4130094;28;20053;-79
2021/10/25 01:22:11;;;;;;;46.90;27.17;;;4.90;99.90;;;;;;4130313;28;20105;-80
2021/10/25 01:24:12;;;;;;;54.78;28.30;;;5.00;99.90;;;;;;4130697;28;20577;-79
2021/10/25 01:26:14;;;;;;;46.58;27.45;;;5.20;99.90;;;;;;4124460;28;20042;-79
2021/10/25 01:28:14;;;;;;;47.03;29.33;;;5.30;99.90;;;;;;4129926;28;20030;-79
2021/10/25 01:30:16;;;;;;;46.97;27.63;;;5.40;99.90;;;;;;4120286;28;20035;-79
2021/10/25 01:32:17;;;;;;;42.33;27.90;;;5.40;99.90;;;;;;4121134;28;20034;-79
2021/10/25 01:34:18;;;;;;;39.08;27.17;;;5.50;99.90;;;;;;4146656;28;20466;-79
2021/10/25 01:36:20;;;;;;;42.53;27.55;;;5.50;99.90;;;;;;4124587;28;20574;-79
2021/10/25 01:38:21;;;;;;;44.70;27.45;;;5.60;99.90;;;;;;4127321;28;20089;-79
2021/10/25 01:40:21;;;;;;;46.45;27.65;;;5.60;99.90;;;;;;4132420;28;20093;-79
2021/10/25 01:42:22;;;;;;;39.25;25.92;;;5.70;99.90;;;;;;4130296;28;20409;-79
2021/10/25 01:44:24;;;;;;;40.10;24.45;;;5.70;99.90;;;;;;4131170;28;20088;-79
2021/10/25 01:46:24;;;;;;;41.47;23.90;;;5.80;99.90;;;;;;4118512;28;20157;-79
2021/10/25 01:48:26;;;;;;;39.28;23.15;;;5.90;99.90;;;;;;4122926;28;20049;-79
2021/10/25 01:50:27;;;;;;;37.53;23.17;;;6.00;99.90;;;;;;4145517;28;20051;-79
2021/10/25 01:52:27;;;;;;;38.47;23.38;;;6.10;99.90;;;;;;4129550;28;20040;-79
2021/10/25 01:54:29;;;;;;;37.65;23.10;;;6.30;99.90;;;;;;4133256;28;20113;-79
2021/10/25 01:56:29;;;;;;;30.30;21.25;;;6.30;99.90;;;;;;4131931;28;20045;-78
2021/10/25 01:58:30;;;;;;;34.03;21.15;;;6.40;99.90;;;;;;4131815;28;20026;-79
2021/10/25 02:00:32;;;;;;;32.03;20.80;;;6.50;99.90;;;;;;4131088;28;20031;-79
2021/10/25 02:02:32;;;;;;;29.88;20.70;;;6.60;99.90;;;;;;4117352;28;20035;-78
2021/10/25 02:04:34;;;;;;;31.85;19.65;;;6.70;99.90;;;;;;4129897;28;20442;-78
2021/10/25 02:06:34;;;;;;;29.83;19.63;;;6.80;99.90;;;;;;4146440;28;20121;-79
2021/10/25 02:08:35;;;;;;;30.20;19.65;;;6.90;99.90;;;;;;4132127;28;20404;-79
2021/10/25 02:10:36;;;;;;;31.17;19.55;;;6.90;99.90;;;;;;4129379;28;20027;-79
2021/10/25 02:12:37;;;;;;;30.15;16.73;;;6.90;99.90;;;;;;4132571;28;20468;-78
2021/10/25 02:14:38;;;;;;;29.42;18.30;;;7.00;99.90;;;;;;4131892;28;20039;-78
2021/10/25 02:16:39;;;;;;;26.95;18.83;;;7.00;99.90;;;;;;4125634;28;20048;-79
2021/10/25 02:18:40;;;;;;;27.30;18.38;;;7.00;99.90;;;;;;4123050;28;20034;-79
2021/10/25 02:20:42;;;;;;;26.92;18.35;;;7.00;99.90;;;;;;4127637;28;20053;-79
2021/10/25 02:22:43;;;;;;;26.60;18.38;;;7.10;99.90;;;;;;4129845;28;20371;-78
2021/10/25 02:24:44;;;;;;;26.83;18.70;;;7.10;99.90;;;;;;4123194;28;20126;-79
2021/10/25 02:26:45;;;;;;;26.38;18.45;;;7.10;99.90;;;;;;4141633;28;20436;-79
2021/10/25 02:28:46;;;;;;;23.15;16.80;;;7.20;99.90;;;;;;4131396;28;20043;-79
2021/10/25 02:30:47;;;;;;;28.08;18.08;;;7.20;99.90;;;;;;4132520;28;20140;-78
2021/10/25 02:32:47;;;;;;;21.58;16.98;;;7.20;99.90;;;;;;4120057;28;20035;-79
2021/10/25 02:34:48;;;;;;;27.58;17.73;;;7.30;99.90;;;;;;4143967;28;20129;-79
2021/10/25 02:36:49;;;;;;;25.73;17.92;;;7.30;99.90;;;;;;4126981;28;20953;-79
2021/10/25 02:38:51;;;;;;;23.13;17.50;;;7.30;99.90;;;;;;4131163;28;20525;-79
2021/10/25 02:40:51;;;;;;;25.08;17.95;;;7.30;99.90;;;;;;4130981;28;20034;-79
2021/10/25 02:42:52;;;;;;;27.05;17.63;;;7.30;99.90;;;;;;4130003;28;20066;-79
2021/10/25 02:44:53;;;;;;;22.67;16.88;;;7.30;99.90;;;;;;4148995;28;20037;-79
2021/10/25 02:46:55;;;;;;;19.85;15.63;;;7.40;99.90;;;;;;4131472;28;20065;-79
2021/10/25 02:48:56;;;;;;;23.42;16.40;;;7.40;99.90;;;;;;4123228;28;20046;-78
2021/10/25 02:50:57;;;;;;;23.85;16.48;;;7.40;99.90;;;;;;4129713;28;20046;-77
2021/10/25 02:52:58;;;;;;;23.05;15.40;;;7.40;99.90;;;;;;4129389;28;20134;-77
2021/10/25 02:54:59;;;;;;;19.45;15.35;;;7.50;99.90;;;;;;4130233;28;20438;-77
2021/10/25 02:56:59;;;;;;;22.77;15.95;;;7.40;99.90;;;;;;4130486;28;20069;-78
2021/10/25 02:59:00;;;;;;;23.67;15.23;;;7.40;99.90;;;;;;4132289;28;20637;-77
2021/10/25 03:01:00;;;;;;;21.83;15.93;;;7.50;99.90;;;;;;4131778;28;20072;-77
2021/10/25 03:03:02;;;;;;;23.00;16.40;;;7.40;99.90;;;;;;4127798;28;20037;-79
2021/10/25 03:05:04;;;;;;;21.05;16.23;;;7.40;99.90;;;;;;4131434;28;20105;-77
2021/10/25 03:07:05;;;;;;;19.80;14.57;;;7.40;99.90;;;;;;4130787;28;20045;-78
2021/10/25 03:09:07;;;;;;;24.27;16.05;;;7.50;99.90;;;;;;4128854;28;20405;-79
2021/10/25 03:11:08;;;;;;;22.07;15.77;;;7.50;99.90;;;;;;4129444;28;20034;-79
2021/10/25 03:13:09;;;;;;;22.15;15.07;;;7.50;99.90;;;;;;4126902;28;20053;-79
2021/10/25 03:15:10;;;;;;;21.50;15.77;;;7.50;99.90;;;;;;4130625;28;20022;-78
2021/10/25 03:17:10;;;;;;;23.45;14.85;;;7.50;99.90;;;;;;4132056;28;20022;-78
2021/10/25 03:19:11;;;;;;;24.48;14.57;;;7.60;99.90;;;;;;4130723;28;20031;-79
2021/10/25 03:21:12;;;;;;;20.35;14.68;;;7.60;99.90;;;;;;4132354;28;20039;-78
2021/10/25 03:23:13;;;;;;;25.52;15.68;;;7.60;99.90;;;;;;4131632;28;20046;-79
2021/10/25 03:25:13;;;;;;;20.65;14.77;;;7.70;99.90;;;;;;4130298;28;20041;-79
2021/10/25 03:27:14;;;;;;;23.65;15.90;;;7.70;99.90;;;;;;4130844;28;20031;-79
2021/10/25 03:29:16;;;;;;;24.20;14.98;;;7.70;99.90;;;;;;4131030;28;20030;-79
2021/10/25 03:31:19;;;;;;;19.92;13.88;;;7.80;99.90;;;;;;4130452;28;20133;-79
2021/10/25 03:33:20;;;;;;;19.90;14.77;;;7.80;99.90;;;;;;4123125;28;20039;-79
2021/10/25 03:35:21;;;;;;;17.27;14.68;;;7.80;99.90;;;;;;4136538;28;20037;-79
2021/10/25 03:37:23;;;;;;;18.45;13.07;;;7.70;99.90;;;;;;4130296;28;20109;-78
2021/10/25 03:39:26;;;;;;;21.63;13.90;;;7.70;99.90;;;;;;4130496;28;20050;-78
2021/10/25 03:41:42;;;;;;;18.65;14.43;;;7.80;99.90;;;;;;4127478;28;20113;-77
2021/10/25 03:43:52;;;;;;;18.90;13.85;;;7.70;99.90;;;;;;4119587;28;20048;-79
2021/10/25 03:46:01;;;;;;;20.00;14.48;;;7.70;99.90;;;;;;4130576;28;20478;-79
2021/10/25 03:48:18;;;;;;;25.10;16.00;;;7.70;99.90;;;;;;4127565;28;20026;-79
2021/10/25 03:50:21;;;;;;;19.02;14.68;;;7.70;99.90;;;;;;4124157;28;20042;-79
2021/10/25 03:52:34;;;;;;;18.40;13.23;;;7.70;99.90;;;;;;4130443;28;20060;-78
2021/10/25 03:55:06;;;;;;;17.60;13.27;;;7.70;99.90;;;;;;4129398;28;20041;-79
2021/10/25 04:26:16;;;;;;;21.52;13.98;;;7.90;99.90;;;;;;4122458;28;20177;-79
2021/10/25 04:28:21;;;;;;;18.88;14.38;;;7.90;99.90;;;;;;4124805;28;20471;-79
2021/10/25 04:30:22;;;;;;;19.50;14.98;;;7.90;99.90;;;;;;4133115;28;20060;-78
2021/10/25 04:32:22;;;;;;;17.42;14.65;;;7.90;99.90;;;;;;4123790;28;20035;-79
2021/10/25 04:34:23;;;;;;;18.20;14.23;;;7.80;99.90;;;;;;4123492;28;20531;-78
2021/10/25 04:36:25;;;;;;;19.10;15.02;;;7.80;99.90;;;;;;4128150;28;20076;-78
2021/10/25 04:38:25;;;;;;;23.48;14.65;;;7.80;99.90;;;;;;4127283;28;20034;-78
2021/10/25 04:40:26;;;;;;;18.63;13.90;;;7.80;99.90;;;;;;4128374;28;20027;-78
2021/10/25 04:42:27;;;;;;;19.08;14.63;;;7.80;99.90;;;;;;4129794;28;20061;-78
2021/10/25 04:44:30;;;;;;;23.02;14.88;;;7.80;99.90;;;;;;4121750;28;20040;-78
2021/10/25 04:46:30;;;;;;;22.20;14.88;;;7.80;99.90;;;;;;4130479;28;20046;-78
2021/10/25 04:48:31;;;;;;;28.92;17.40;;;7.80;99.90;;;;;;4129644;28;20030;-78
2021/10/25 04:50:32;;;;;;;26.25;16.50;;;7.80;99.90;;;;;;4129931;28;20057;-78
2021/10/25 04:52:33;;;;;;;25.80;15.95;;;7.90;99.90;;;;;;4129003;28;20029;-78
2021/10/25 04:54:37;;;;;;;24.67;15.93;;;7.90;99.90;;;;;;4126608;28;20049;-78
2021/10/25 04:56:38;;;;;;;23.20;16.00;;;8.00;99.90;;;;;;4114655;28;20545;-78
2021/10/25 04:58:39;;;;;;;24.88;16.25;;;8.00;99.90;;;;;;4126015;28;20038;-78
2021/10/25 05:00:40;;;;;;;23.52;15.85;;;8.00;99.90;;;;;;4130476;28;20073;-78
2021/10/25 05:02:40;;;;;;;20.02;13.85;;;8.00;99.90;;;;;;4129612;28;20045;-78
2021/10/25 05:04:41;;;;;;;20.40;14.77;;;8.00;99.90;;;;;;4128901;28;20026;-78
2021/10/25 05:06:42;;;;;;;19.88;14.95;;;8.00;99.90;;;;;;4126379;28;20058;-78
2021/10/25 05:08:44;;;;;;;16.10;14.18;;;8.00;99.90;;;;;;4113532;28;20078;-79
2021/10/25 05:10:45;;;;;;;23.42;13.93;;;8.10;99.90;;;;;;4128225;28;20068;-78
2021/10/25 05:12:45;;;;;;;20.13;14.60;;;8.10;99.90;;;;;;4127791;28;20042;-78
2021/10/25 05:14:46;;;;;;;21.55;14.27;;;8.10;99.90;;;;;;4127944;28;20031;-78
2021/10/25 05:16:47;;;;;;;17.88;13.40;;;8.20;99.90;;;;;;4128428;28;20045;-78
2021/10/25 05:18:48;;;;;;;20.40;14.02;;;8.20;99.90;;;;;;4126830;28;20043;-78
2021/10/25 05:20:49;;;;;;;16.67;13.00;;;8.20;99.90;;;;;;4128630;28;20048;-77
2021/10/25 05:22:49;;;;;;;15.57;12.65;;;8.20;99.90;;;;;;4124995;28;20030;-78
2021/10/25 05:24:50;;;;;;;19.02;13.50;;;8.20;99.90;;;;;;4124934;28;20046;-78
2021/10/25 05:26:51;;;;;;;15.85;13.30;;;8.30;99.90;;;;;;4124601;28;20406;-78
2021/10/25 05:28:52;;;;;;;18.77;12.82;;;8.30;99.90;;;;;;4116975;28;20145;-78
2021/10/25 05:30:53;;;;;;;18.23;13.27;;;8.30;99.90;;;;;;4125226;28;20126;-78
2021/10/25 05:32:54;;;;;;;18.77;13.35;;;8.30;99.90;;;;;;4120731;28;20034;-77
2021/10/25 05:34:56;;;;;;;18.58;13.38;;;8.30;99.90;;;;;;4119875;28;20053;-78
2021/10/25 05:36:57;;;;;;;17.05;12.48;;;8.30;99.90;;;;;;4118664;28;20045;-78
2021/10/25 05:38:58;;;;;;;19.77;14.30;;;8.30;99.90;;;;;;4120907;28;20030;-77
2021/10/25 05:40:58;;;;;;;16.10;12.55;;;8.40;99.90;;;;;;4117382;28;20033;-76
2021/10/25 05:43:01;;;;;;;16.02;11.63;;;8.40;99.90;;;;;;4117226;28;20061;-77
2021/10/25 05:45:04;;;;;;;19.63;13.50;;;8.40;99.90;;;;;;4119131;28;20088;-77
2021/10/25 05:47:06;;;;;;;31.35;20.80;;;8.40;99.90;;;;;;4126601;28;20062;-77
2021/10/25 05:49:07;;;;;;;22.42;15.65;;;8.40;99.90;;;;;;4128309;28;20045;-77
2021/10/25 05:51:08;;;;;;;17.63;13.32;;;8.40;99.90;;;;;;4119917;28;20038;-77
2021/10/25 05:53:09;;;;;;;31.20;22.58;;;8.40;99.90;;;;;;4128362;28;20556;-77
2021/10/25 05:55:10;;;;;;;21.70;15.63;;;8.40;99.90;;;;;;4128583;28;20359;-77
2021/10/25 05:57:13;;;;;;;16.80;13.38;;;8.40;99.90;;;;;;4135268;28;20129;-78
2021/10/25 05:59:15;;;;;;;19.17;13.95;;;8.50;99.90;;;;;;4129012;28;20023;-78
2021/10/25 06:01:18;;;;;;;19.67;13.27;;;8.50;99.90;;;;;;4127834;28;20027;-78
2021/10/25 06:03:23;;;;;;;20.33;13.80;;;8.50;99.90;;;;;;4127870;28;20486;-77
2021/10/25 06:05:27;;;;;;;23.95;13.52;;;8.50;99.90;;;;;;4124957;28;20031;-78
2021/10/25 06:07:28;;;;;;;19.08;11.80;;;8.50;99.90;;;;;;4116807;28;20027;-78
2021/10/25 06:09:33;;;;;;;17.48;12.57;;;8.60;99.90;;;;;;4120584;28;20443;-77
2021/10/25 06:11:35;;;;;;;16.48;10.80;;;8.60;99.90;;;;;;4117868;28;20046;-78
2021/10/25 06:13:43;;;;;;;19.40;11.82;;;8.60;99.90;;;;;;4127434;28;20417;-78
2021/10/25 06:15:44;;;;;;;18.63;12.45;;;8.70;99.90;;;;;;4117936;28;20191;-77
2021/10/25 06:17:55;;;;;;;16.25;11.32;;;8.70;99.90;;;;;;4124026;28;20042;-78
2021/10/25 06:19:56;;;;;;;19.58;11.48;;;8.70;99.90;;;;;;4129715;28;20089;-78
2021/10/25 06:21:56;;;;;;;13.02;10.32;;;8.80;99.90;;;;;;4121051;28;20110;-78
2021/10/25 06:23:59;;;;;;;13.52;10.13;;;8.80;99.90;;;;;;4124074;28;20042;-77
2021/10/25 06:26:00;;;;;;;16.15;10.00;;;8.90;99.90;;;;;;4130809;28;20022;-78
2021/10/25 06:28:00;;;;;;;21.35;12.05;;;8.90;99.90;;;;;;4125825;28;20129;-78
2021/10/25 06:30:02;;;;;;;17.92;10.80;;;9.00;99.90;;;;;;4117938;28;20513;-78
2021/10/25 06:32:03;;;;;;;19.50;10.57;;;9.10;99.90;;;;;;4126451;28;20038;-78
2021/10/25 06:34:08;;;;;;;16.95;10.82;;;9.10;99.90;;;;;;4116876;28;20121;-78
2021/10/25 06:36:10;;;;;;;14.95;10.77;;;9.20;99.90;;;;;;4142410;28;20076;-79
2021/10/25 06:38:11;;;;;;;15.55;10.77;;;9.20;99.90;;;;;;4116061;28;20030;-79
2021/10/25 06:40:12;;;;;;;24.25;11.57;;;9.20;99.90;;;;;;4117271;28;20058;-80
2021/10/25 06:42:13;;;;;;;16.42;11.70;;;9.20;99.90;;;;;;4117786;28;20486;-79
2021/10/25 06:44:13;;;;;;;19.92;11.70;;;9.20;99.90;;;;;;4117914;28;20045;-78
2021/10/25 06:46:15;;;;;;;13.43;10.40;;;9.30;99.90;;;;;;4118853;28;20050;-79
2021/10/25 06:48:16;;;;;;;17.50;11.98;;;9.20;99.90;;;;;;4130260;28;20034;-79
2021/10/25 06:50:18;;;;;;;13.80;11.10;;;9.20;99.90;;;;;;4119548;28;20108;-78
2021/10/25 06:52:19;;;;;;;22.77;11.20;;;9.20;99.90;;;;;;4119568;28;20077;-78
2021/10/25 06:54:19;;;;;;;15.95;11.35;;;9.20;99.90;;;;;;4121703;28;20045;-78
2021/10/25 06:56:20;;;;;;;17.42;10.75;;;9.20;99.90;;;;;;4119866;28;20026;-78
2021/10/25 06:58:21;;;;;;;13.80;10.27;;;9.10;99.90;;;;;;4121305;28;20038;-78
2021/10/25 07:00:22;;;;;;;13.27;10.35;;;9.20;99.90;;;;;;4120844;28;20061;-78
2021/10/25 07:02:23;;;;;;;15.50;11.00;;;9.20;99.90;;;;;;4118204;28;20489;-78
2021/10/25 07:04:24;;;;;;;13.45;10.35;;;9.10;99.90;;;;;;4119183;28;20022;-78
2021/10/25 07:06:25;;;;;;;14.68;11.18;;;9.20;99.90;;;;;;4117711;28;20045;-79
2021/10/25 07:08:27;;;;;;;15.93;10.80;;;9.20;99.90;;;;;;4117102;28;20446;-78
2021/10/25 07:10:28;;;;;;;17.23;10.15;;;9.20;99.90;;;;;;4117883;28;20366;-78
2021/10/25 07:12:29;;;;;;;14.82;10.35;;;9.20;99.90;;;;;;4118033;28;20022;-78
2021/10/25 07:14:34;;;;;;;15.25;9.68;;;9.20;99.90;;;;;;4117262;28;20042;-78
2021/10/25 07:16:48;;;;;;;13.07;10.38;;;9.30;99.90;;;;;;4135455;28;20158;-78
2021/10/25 08:01:05;;;;;;;15.95;11.50;;;9.50;99.90;;;;;;4116371;28;20041;-77
2021/10/25 08:07:24;;;;;;;15.98;11.77;;;9.60;99.90;;;;;;4117766;28;20038;-78
2021/10/25 08:11:48;;;;;;;17.50;11.50;;;9.50;99.90;;;;;;4119182;28;20038;-78
2021/10/25 08:13:49;;;;;;;16.75;11.88;;;9.50;99.90;;;;;;4119260;28;20030;-78
2021/10/25 08:15:51;;;;;;;18.27;12.15;;;9.60;99.90;;;;;;4114460;28;20053;-78
2021/10/25 08:17:56;;;;;;;19.45;11.77;;;9.60;99.90;;;;;;4118237;28;20450;-79
2021/10/25 08:19:58;;;;;;;14.55;10.45;;;9.70;99.90;;;;;;4115750;28;20040;-78
2021/10/25 08:22:13;;;;;;;14.70;9.75;;;9.80;99.90;;;;;;4112299;28;20129;-78
2021/10/25 08:24:14;;;;;;;13.77;9.98;;;9.80;99.90;;;;;;4118136;28;20046;-78
2021/10/25 08:26:15;;;;;;;14.48;9.82;;;9.90;99.90;;;;;;4116621;28;20474;-78
2021/10/25 08:28:16;;;;;;;20.15;10.68;;;9.90;99.90;;;;;;4117863;28;20403;-77
2021/10/25 08:30:19;;;;;;;16.42;10.57;;;10.00;99.90;;;;;;4117825;28;20129;-78
2021/10/25 08:39:46;;;;;;;14.20;9.73;;;10.00;99.90;;;;;;4116884;28;20048;-78
2021/10/25 08:41:15;;;;;;;15.23;9.98;;;10.10;99.90;;;;;;4115523;28;20069;-78
2021/10/25 08:43:16;;;;;;;17.90;10.55;;;10.20;99.90;;;;;;4117334;28;20031;-79
2021/10/25 08:45:18;;;;;;;16.80;10.82;;;10.40;99.90;;;;;;4116615;28;20148;-78
2021/10/25 08:47:23;;;;;;;14.75;9.80;;;10.40;99.90;;;;;;4114745;28;20034;-79
2021/10/25 08:49:24;;;;;;;11.30;10.05;;;10.40;99.90;;;;;;4116849;28;21736;-78
2021/10/25 08:51:26;;;;;;;17.80;10.32;;;10.40;99.90;;;;;;4115180;28;20053;-78
2021/10/25 08:53:26;;;;;;;14.50;9.65;;;10.50;99.90;;;;;;4116787;28;20073;-78
2021/10/25 08:55:27;;;;;;;14.18;9.35;;;10.50;99.90;;;;;;4115308;28;20026;-78
2021/10/25 08:57:28;;;;;;;18.42;10.13;;;10.50;99.90;;;;;;4116607;28;20034;-78
2021/10/25 08:59:30;;;;;;;12.27;9.40;;;10.60;99.90;;;;;;4116825;28;20034;-79
2021/10/25 09:01:32;;;;;;;17.95;9.43;;;10.60;99.90;;;;;;4116328;28;20034;-78
2021/10/25 09:03:34;;;;;;;16.73;10.20;;;10.50;99.90;;;;;;4114940;28;20045;-78
2021/10/25 09:05:36;;;;;;;16.73;10.30;;;10.60;99.90;;;;;;4116010;28;20033;-78
2021/10/25 09:08:00;;;;;;;14.55;10.32;;;10.60;99.90;;;;;;4116060;28;20049;-78
2021/10/25 09:10:05;;;;;;;13.25;8.80;;;10.70;99.90;;;;;;4115699;28;20100;-79
2021/10/25 09:12:11;;;;;;;17.30;9.20;;;10.80;99.90;;;;;;4117688;28;20046;-78
2021/10/25 09:14:18;;;;;;;15.25;8.73;;;10.80;99.90;;;;;;4117206;28;20135;-78
2021/10/25 09:16:19;;;;;;;18.00;10.98;;;10.80;99.90;;;;;;4116065;28;20034;-78
2021/10/25 09:18:25;;;;;;;15.43;9.23;;;10.90;99.90;;;;;;4115621;28;20182;-78
2021/10/25 09:20:26;;;;;;;13.23;9.68;;;10.80;99.90;;;;;;4116587;28;20026;-78
2021/10/25 09:22:27;;;;;;;14.98;9.85;;;10.80;99.90;;;;;;4114964;28;20497;-78
2021/10/25 09:24:27;;;;;;;15.90;9.77;;;10.80;99.90;;;;;;4140759;28;20072;-78
2021/10/25 09:26:32;;;;;;;14.88;9.88;;;10.90;99.90;;;;;;4116662;28;20038;-78
2021/10/25 09:28:40;;;;;;;14.43;10.13;;;11.00;99.90;;;;;;4118121;28;20318;-78
2021/10/25 09:30:46;;;;;;;15.15;9.30;;;10.90;99.90;;;;;;4116950;28;20026;-77
2021/10/25 09:32:47;;;;;;;15.80;9.52;;;11.00;99.90;;;;;;4114259;28;20130;-78
2021/10/25 09:34:58;;;;;;;14.20;9.48;;;11.10;99.90;;;;;;4115124;28;20157;-78
2021/10/25 09:37:07;;;;;;;13.32;9.13;;;11.10;99.90;;;;;;4115038;28;20034;-78
2021/10/25 09:39:36;;;;;;;14.00;9.80;;;11.20;99.90;;;;;;4131010;28;20463;-78
2021/10/25 09:46:33;;;;;;;13.65;9.70;;;11.30;99.90;;;;;;4114472;28;20034;-78
2021/10/25 09:50:53;;;;;;;14.27;8.85;;;11.30;99.90;;;;;;4116922;28;20618;-78
2021/10/25 09:52:53;;;;;;;11.80;8.63;;;11.40;99.90;;;;;;4130813;28;20026;-78
2021/10/25 09:54:59;;;;;;;18.00;9.35;;;11.40;99.90;;;;;;4118715;28;20127;-79
2021/10/25 09:57:04;;;;;;;14.65;9.80;;;11.30;99.90;;;;;;4120456;28;20072;-79
2021/10/25 09:59:50;;;;;;;18.50;11.93;;;11.30;99.90;;;;;;4119783;28;20120;-79
2021/10/25 10:01:28;;;;;;;15.25;9.90;;;11.30;99.90;;;;;;4117165;28;20034;-79
2021/10/25 10:03:29;;;;;;;17.25;10.10;;;11.20;99.90;;;;;;4118558;28;20034;-78
2021/10/25 10:05:36;;;;;;;13.13;10.25;;;11.20;99.90;;;;;;4118929;28;20050;-78
2021/10/25 10:07:37;;;;;;;16.90;11.13;;;11.20;99.90;;;;;;4119997;28;20079;-78
2021/10/25 10:09:45;;;;;;;15.75;10.40;;;11.30;99.90;;;;;;4126447;28;20082;-78
2021/10/25 10:11:46;;;;;;;12.00;10.15;;;11.50;99.90;;;;;;4119903;28;20049;-78
2021/10/25 10:13:47;;;;;;;16.67;9.70;;;11.60;99.90;;;;;;4116605;28;20092;-78
2021/10/25 10:15:49;;;;;;;14.80;9.45;;;11.70;99.90;;;;;;4119504;28;20061;-79
2021/10/25 10:17:59;;;;;;;19.23;10.63;;;11.70;99.90;;;;;;4119430;28;20044;-78
2021/10/25 10:20:05;;;;;;;12.02;10.27;;;11.70;99.90;;;;;;4118710;28;20083;-78
2021/10/25 10:22:07;;;;;;;12.15;9.70;;;11.80;99.90;;;;;;4121279;28;20070;-78
2021/10/25 10:24:10;;;;;;;12.05;9.27;;;11.90;99.90;;;;;;4118830;28;20113;-78
2021/10/25 10:26:15;;;;;;;12.93;9.95;;;12.10;99.90;;;;;;4118088;28;20148;-77
2021/10/25 10:28:18;;;;;;;14.15;10.07;;;12.10;99.90;;;;;;4117174;28;20430;-78
2021/10/25 10:30:19;;;;;;;13.57;8.85;;;12.20;99.90;;;;;;4118785;28;20031;-78
2021/10/25 10:32:20;;;;;;;14.02;10.13;;;12.10;99.90;;;;;;4116753;28;20477;-78
2021/10/25 10:34:23;;;;;;;16.45;10.38;;;12.10;99.90;;;;;;4120026;28;20517;-78
2021/10/25 10:36:30;;;;;;;12.98;9.68;;;12.10;99.90;;;;;;4117305;28;20553;-78
2021/10/25 10:38:31;;;;;;;12.80;10.25;;;12.30;99.90;;;;;;4119711;28;20027;-77
2021/10/25 10:40:43;;;;;;;12.75;9.88;;;12.50;99.90;;;;;;4119336;28;20046;-77
2021/10/25 10:42:52;;;;;;;14.50;8.70;;;12.60;99.90;;;;;;4120172;28;20038;-77
2021/10/25 10:45:00;;;;;;;14.73;9.85;;;12.80;99.90;;;;;;4118710;28;20137;-78
2021/10/25 10:47:09;;;;;;;14.32;10.95;;;12.90;99.90;;;;;;4118806;28;20081;-79
2021/10/25 10:49:27;;;;;;;13.23;9.45;;;13.00;99.90;;;;;;4120209;28;20121;-79
2021/10/25 10:51:29;;;;;;;12.50;8.98;;;13.10;99.90;;;;;;4120311;28;20054;-78
2021/10/25 10:53:37;;;;;;;10.55;8.35;;;13.20;99.90;;;;;;4129273;28;20035;-78
2021/10/25 10:55:41;;;;;;;13.63;7.97;;;13.30;99.90;;;;;;4129719;28;20030;-79
2021/10/25 10:59:50;;;;;;;15.57;9.57;;;13.50;99.90;;;;;;4130111;28;20038;-78
2021/10/25 11:01:54;;;;;;;12.23;8.55;;;13.60;99.90;;;;;;4128353;28;20030;-78
2021/10/25 11:04:04;;;;;;;13.02;8.77;;;13.60;99.90;;;;;;4130568;28;20153;-78
2021/10/25 11:06:19;;;;;;;13.63;9.45;;;13.60;99.90;;;;;;4129394;28;20038;-78
2021/10/25 11:08:23;;;;;;;10.43;9.38;;;13.60;99.90;;;;;;4130555;28;20674;-78
2021/10/25 11:10:28;;;;;;;13.88;8.75;;;13.60;99.90;;;;;;4129494;28;20037;-78
2021/10/25 11:12:29;;;;;;;12.10;8.95;;;13.50;99.90;;;;;;4129065;28;20034;-78
2021/10/25 11:14:35;;;;;;;12.02;9.07;;;13.50;99.90;;;;;;4130797;28;20117;-78
2021/10/25 11:18:45;;;;;;;12.55;9.48;;;13.60;99.90;;;;;;4116896;28;20034;-79
2021/10/25 11:20:46;;;;;;;16.55;8.30;;;13.60;99.90;;;;;;4120142;28;20052;-79
2021/10/25 11:22:47;;;;;;;13.02;9.23;;;13.60;99.90;;;;;;4116804;28;20042;-79
2021/10/25 11:24:52;;;;;;;10.07;7.78;;;13.70;99.90;;;;;;4116845;28;20049;-79
2021/10/25 11:26:54;;;;;;;9.65;8.65;;;13.70;99.90;;;;;;4115154;28;20042;-78
2021/10/25 11:29:15;;;;;;;9.35;8.20;;;13.70;99.90;;;;;;4124866;28;20044;-79
2021/10/25 11:31:17;;;;;;;14.00;8.85;;;13.80;99.90;;;;;;4128702;28;20026;-79
2021/10/25 11:33:19;;;;;;;11.52;8.50;;;13.80;99.90;;;;;;4129726;28;20030;-79
2021/10/25 11:35:21;;;;;;;10.77;8.43;;;13.80;99.90;;;;;;4129648;28;20506;-79
2021/10/25 11:37:23;;;;;;;10.73;8.43;;;13.90;99.90;;;;;;4131817;28;20042;-79
2021/10/25 11:39:35;;;;;;;11.00;8.13;;;13.90;99.90;;;;;;4129090;28;20374;-79
2021/10/25 11:41:46;;;;;;;12.15;9.35;;;13.90;99.90;;;;;;4128751;28;20050;-79
2021/10/25 11:43:47;;;;;;;13.02;8.10;;;13.80;99.90;;;;;;4129225;28;20026;-79
2021/10/25 11:45:48;;;;;;;11.05;8.20;;;13.70;99.90;;;;;;4127794;28;20114;-79
2021/10/25 11:47:50;;;;;;;10.85;8.77;;;13.70;99.90;;;;;;4128203;28;20746;-79
2021/10/25 11:49:59;;;;;;;10.85;8.40;;;13.80;99.90;;;;;;4126126;28;20034;-79
2021/10/25 11:52:00;;;;;;;13.70;8.25;;;13.70;99.90;;;;;;4128984;28;20037;-79
2021/10/25 11:54:02;;;;;;;12.05;9.45;;;13.60;99.90;;;;;;4127382;28;20038;-80
2021/10/25 11:56:11;;;;;;;12.73;9.00;;;13.60;99.90;;;;;;4129188;28;20027;-79
2021/10/25 11:58:14;;;;;;;12.27;9.80;;;13.50;99.90;;;;;;4130270;28;20034;-79
2021/10/25 12:00:16;;;;;;;;;;;13.60;99.90;;;;;;4124527;28;20030;-79
2021/10/25 12:02:20;;;;;;;11.02;8.27;;;13.60;99.90;;;;;;4122018;28;19922;-79
2021/10/25 12:04:21;;;;;;;14.32;9.25;;;13.60;99.90;;;;;;4126291;28;20033;-79
2021/10/25 12:06:23;;;;;;;10.27;7.95;;;13.60;99.90;;;;;;4129171;28;20038;-78